createdAt,value
2019-04-20T00:01:01.674Z,31.87
2019-04-20T00:06:09.055Z,25.63
2019-04-20T00:11:21.871Z,27.50
2019-04-20T00:16:23.080Z,27.73
2019-04-20T00:21:53.411Z,30.67
2019-04-20T00:27:16.309Z,32.85
2019-04-20T00:32:12.508Z,29.40
2019-04-20T00:37:08.904Z,32.03
2019-04-20T00:42:16.276Z,32.53
2019-04-20T00:47:34.888Z,32.73
2019-04-20T00:52:42.491Z,36.57
2019-04-20T00:57:46.376Z,30.23
2019-04-20T01:02:54.106Z,40.33
2019-04-20T01:08:02.144Z,31.43
2019-04-20T01:13:12.203Z,31.35
2019-04-20T01:18:15.188Z,34.30
2019-04-20T01:23:23.778Z,37.03
2019-04-20T01:28:46.366Z,36.23
2019-04-20T01:33:46.087Z,37.00
2019-04-20T01:38:57.803Z,35.33
2019-04-20T01:43:50.210Z,33.13
2019-04-20T01:48:59.993Z,32.70
2019-04-20T01:54:24.934Z,37.40
2019-04-20T01:59:37.976Z,32.20
2019-04-20T02:04:39.042Z,35.60
2019-04-20T02:09:48.506Z,33.83
2019-04-20T02:14:55.262Z,29.83
2019-04-20T02:20:15.729Z,35.40
2019-04-20T02:25:03.834Z,31.93
2019-04-20T02:36:04.642Z,37.40
2019-04-20T02:41:11.547Z,31.13
2019-04-20T02:46:12.322Z,36.10
2019-04-20T02:51:26.241Z,37.67
2019-04-20T02:56:32.018Z,31.70
2019-04-20T03:01:36.816Z,32.33
2019-04-20T03:06:36.308Z,29.83
2019-04-20T03:11:59.589Z,32.13
2019-04-20T03:16:57.172Z,31.13
2019-04-20T03:22:09.463Z,27.83
2019-04-20T03:27:12.385Z,31.82
2019-04-20T03:37:42.205Z,31.87
2019-04-20T03:42:22.375Z,34.40
2019-04-20T03:47:38.577Z,36.27
2019-04-20T03:53:02.750Z,33.57
2019-04-20T03:58:17.040Z,33.60
2019-04-20T04:03:36.159Z,35.50
2019-04-20T04:08:24.759Z,38.57
2019-04-20T04:13:22.915Z,35.40
2019-04-20T04:18:36.844Z,32.07
2019-04-20T04:23:49.015Z,32.27
2019-04-20T04:29:00.297Z,34.93
2019-04-20T04:34:10.769Z,31.37
2019-04-20T04:39:22.164Z,32.23
2019-04-20T04:44:21.447Z,33.27
2019-04-20T04:49:20.840Z,28.47
2019-04-20T04:54:28.822Z,28.97
2019-04-20T04:59:25.796Z,30.10
2019-04-20T05:05:08.610Z,25.77
2019-04-20T05:09:48.644Z,27.23
2019-04-20T05:15:04.313Z,20.75
2019-04-20T05:20:19.023Z,23.70
2019-04-20T05:25:30.904Z,27.23
2019-04-20T05:30:24.546Z,24.63
2019-04-20T05:35:49.937Z,20.20
2019-04-20T05:40:55.714Z,21.67
2019-04-20T05:45:58.699Z,23.27
2019-04-20T05:51:12.162Z,22.25
2019-04-20T05:56:17.269Z,20.70
2019-04-20T06:01:26.930Z,20.27
2019-04-20T06:06:34.580Z,21.40
2019-04-20T06:11:47.832Z,18.53
2019-04-20T06:16:59.795Z,19.43
2019-04-20T06:22:12.596Z,22.97
2019-04-20T06:27:16.378Z,18.80
2019-04-20T06:32:28.785Z,20.73
2019-04-20T06:37:29.622Z,18.03
2019-04-20T06:42:36.633Z,26.00
2019-04-20T06:47:47.010Z,23.33
2019-04-20T06:52:52.713Z,22.83
2019-04-20T06:58:22.102Z,28.32
2019-04-20T07:03:17.139Z,22.13
2019-04-20T07:08:37.399Z,27.60
2019-04-20T07:13:19.993Z,26.93
2019-04-20T07:18:35.654Z,27.43
2019-04-20T07:23:41.884Z,32.27
2019-04-20T07:28:56.797Z,33.43
2019-04-20T07:33:59.354Z,34.93
2019-04-20T07:39:07.592Z,33.90
2019-04-20T07:44:11.795Z,28.90
2019-04-20T07:49:22.441Z,34.33
2019-04-20T07:54:31.625Z,31.57
2019-04-20T07:59:25.230Z,36.53
2019-04-20T08:04:44.212Z,33.40
2019-04-20T08:09:44.265Z,38.13
2019-04-20T08:15:16.598Z,31.43
2019-04-20T08:20:09.251Z,33.00
2019-04-20T08:25:08.593Z,36.73
2019-04-20T08:30:30.909Z,34.30
2019-04-20T08:35:40.361Z,26.40
2019-04-20T08:40:43.599Z,31.13
2019-04-20T08:45:57.460Z,34.07
2019-04-20T08:50:57.434Z,29.07
2019-04-20T08:56:00.257Z,30.03
2019-04-20T09:00:58.809Z,31.87
2019-04-20T09:06:09.813Z,35.30
2019-04-20T09:11:25.002Z,30.93
2019-04-20T09:16:19.874Z,31.80
2019-04-20T09:21:35.553Z,28.47
2019-04-20T09:26:50.268Z,30.57
2019-04-20T09:31:52.097Z,30.63
2019-04-20T09:37:22.424Z,32.47
2019-04-20T09:42:15.212Z,27.57
2019-04-20T09:47:28.375Z,21.17
2019-04-20T09:52:46.414Z,22.77
2019-04-20T09:57:54.228Z,19.33
2019-04-20T10:02:43.383Z,17.63
2019-04-20T10:07:56.026Z,22.80
2019-04-20T10:12:58.372Z,18.73
2019-04-20T10:18:05.746Z,15.20
2019-04-20T10:23:12.472Z,13.70
2019-04-20T10:28:19.422Z,19.37
2019-04-20T10:33:25.791Z,17.17
2019-04-20T10:38:34.294Z,18.20
2019-04-20T10:43:40.756Z,22.48
2019-04-20T10:48:51.670Z,13.97
2019-04-20T10:53:56.203Z,16.97
2019-04-20T10:59:01.539Z,21.90
2019-04-20T11:04:08.361Z,14.37
2019-04-20T11:09:14.324Z,16.43
2019-04-20T11:14:26.606Z,12.53
2019-04-20T11:19:27.439Z,11.23
2019-04-20T11:24:34.363Z,12.60
2019-04-20T11:29:40.240Z,10.00
2019-04-20T11:34:47.032Z,12.45
2019-04-20T11:39:52.917Z,9.88
2019-04-20T11:44:58.402Z,12.18
2019-04-20T11:50:03.839Z,11.57
2019-04-20T11:55:10.535Z,13.18
2019-04-20T12:00:19.200Z,11.00
2019-04-20T12:05:32.411Z,10.23
2019-04-20T12:10:33.135Z,11.83
2019-04-20T12:15:39.550Z,23.70
2019-04-20T12:20:44.999Z,23.57
2019-04-20T12:25:50.406Z,25.33
2019-04-20T12:31:03.042Z,25.90
2019-04-20T12:36:03.243Z,25.57
2019-04-20T12:41:11.031Z,24.75
2019-04-20T12:46:18.328Z,28.00
2019-04-20T12:51:30.382Z,24.67
2019-04-20T12:56:30.647Z,28.52
2019-04-20T13:01:37.315Z,35.08
2019-04-20T13:06:44.676Z,28.65
2019-04-20T13:12:04.430Z,25.95
2019-04-20T13:17:06.309Z,22.95
2019-04-20T13:22:12.965Z,25.68
2019-04-20T13:27:18.698Z,25.62
2019-04-20T13:32:25.576Z,23.30
2019-04-20T13:37:31.867Z,28.73
2019-04-20T13:42:38.175Z,23.38
2019-04-20T13:47:43.571Z,23.73
2019-04-20T13:52:49.373Z,28.50
2019-04-20T13:58:00.334Z,30.97
2019-04-20T14:03:08.971Z,28.03
2019-04-20T14:08:21.130Z,29.43
2019-04-20T14:13:36.556Z,27.93
2019-04-20T14:18:33.706Z,23.43
2019-04-20T14:23:39.143Z,22.67
2019-04-20T14:28:45.128Z,20.80
2019-04-20T14:33:50.914Z,21.40
2019-04-20T14:38:56.146Z,19.40
2019-04-20T14:44:01.642Z,18.45
2019-04-20T14:49:07.079Z,18.70
2019-04-20T14:54:13.775Z,18.60
2019-04-20T14:59:25.323Z,18.40
2019-04-20T15:04:32.044Z,17.93
2019-04-20T15:09:39.374Z,17.63
2019-04-20T15:14:44.995Z,22.80
2019-04-20T15:20:03.645Z,23.83
2019-04-20T15:25:09.637Z,22.90
2019-04-20T15:30:16.228Z,18.50
2019-04-20T15:35:23.355Z,23.60
2019-04-20T15:40:29.033Z,28.70
2019-04-20T15:45:34.296Z,29.33
2019-04-20T15:50:41.360Z,26.75
2019-04-20T15:55:48.747Z,26.97
2019-04-20T16:00:54.636Z,22.02
2019-04-20T16:06:03.257Z,26.83
2019-04-20T16:11:11.427Z,26.43
2019-04-20T16:16:16.976Z,21.80
2019-04-20T16:21:26.068Z,30.63
2019-04-20T16:26:35.589Z,24.60
2019-04-20T16:31:43.934Z,27.63
2019-04-20T16:36:50.132Z,24.37
2019-04-20T16:41:56.178Z,30.47
2019-04-20T16:47:01.616Z,30.23
2019-04-20T16:52:07.403Z,32.80
2019-04-20T16:57:14.211Z,29.40
2019-04-20T17:02:21.172Z,27.47
2019-04-20T17:07:39.414Z,30.77
2019-04-20T17:12:46.050Z,28.53
2019-04-20T17:17:53.156Z,30.57
2019-04-20T17:22:58.537Z,28.23
2019-04-20T17:28:24.801Z,31.53
2019-04-20T17:33:47.499Z,33.07
2019-04-20T17:38:48.474Z,33.00
2019-04-20T17:44:11.655Z,36.10
2019-04-20T17:49:13.617Z,31.42
2019-04-20T17:54:23.495Z,36.20
2019-04-20T17:59:30.288Z,31.50
2019-04-20T18:05:06.570Z,31.57
2019-04-20T18:10:14.301Z,35.40
2019-04-20T18:15:21.241Z,29.00
2019-04-20T18:20:14.961Z,32.90
2019-04-20T18:25:53.373Z,30.40
2019-04-20T18:30:43.662Z,36.17
2019-04-20T18:35:46.020Z,34.50
2019-04-20T18:40:55.715Z,26.87
2019-04-20T18:46:15.104Z,33.77
2019-04-20T18:51:03.921Z,31.43
2019-04-20T18:56:09.620Z,30.63
2019-04-20T19:01:15.275Z,25.40
2019-04-20T19:06:21.775Z,29.10
2019-04-20T19:11:28.581Z,32.13
2019-04-20T19:16:52.884Z,30.97
2019-04-20T19:21:45.957Z,30.40
2019-04-20T19:26:58.347Z,24.18
2019-04-20T19:32:17.563Z,20.90
2019-04-20T19:37:15.689Z,20.97
2019-04-20T19:42:29.795Z,18.10
2019-04-20T19:47:38.350Z,15.53
2019-04-20T19:52:51.562Z,19.07
2019-04-20T19:57:51.247Z,17.97
2019-04-20T20:02:41.514Z,23.37
2019-04-20T20:07:52.525Z,22.50
2019-04-20T20:12:58.986Z,22.70
2019-04-20T20:18:19.395Z,21.07
2019-04-20T20:23:10.046Z,23.03
2019-04-20T20:28:27.088Z,22.83
2019-04-20T20:33:39.505Z,21.47
2019-04-20T20:38:36.933Z,28.83
2019-04-20T20:43:49.626Z,28.33
2019-04-20T20:49:06.293Z,29.67
2019-04-20T20:54:03.318Z,31.90
2019-04-20T20:59:07.530Z,30.62
2019-04-20T21:04:06.901Z,26.30
2019-04-20T21:09:12.570Z,28.80
2019-04-20T21:14:23.779Z,28.57
2019-04-20T21:19:45.342Z,29.53
2019-04-20T21:24:38.026Z,22.97
2019-04-20T21:29:49.293Z,26.40
2019-04-20T21:34:55.618Z,25.77
2019-04-20T21:40:01.481Z,26.40
2019-04-20T21:45:10.293Z,29.03
2019-04-20T21:50:31.214Z,25.30
2019-04-20T21:55:19.336Z,22.77
2019-04-20T22:00:40.843Z,22.20
2019-04-20T22:05:42.315Z,26.73
2019-04-20T22:10:50.038Z,31.95
2019-04-20T22:16:01.428Z,34.45
2019-04-20T22:21:11.182Z,33.17
2019-04-20T22:26:20.754Z,83.17
2019-04-20T22:31:16.374Z,38.40
2019-04-20T22:36:25.939Z,39.17
2019-04-20T22:41:30.064Z,39.70
2019-04-20T22:46:37.575Z,42.00
2019-04-20T22:51:53.184Z,45.93
2019-04-20T22:57:01.069Z,43.70
2019-04-20T23:02:00.327Z,41.63
2019-04-20T23:07:03.229Z,36.30
2019-04-20T23:12:12.223Z,45.57
2019-04-20T23:17:18.465Z,33.37
2019-04-20T23:22:23.084Z,32.07
2019-04-20T23:27:31.602Z,31.30
2019-04-20T23:32:35.873Z,28.27
2019-04-20T23:37:42.290Z,25.67
2019-04-20T23:42:53.715Z,28.83
2019-04-20T23:48:05.394Z,28.40
2019-04-20T23:53:29.828Z,28.90
2019-04-20T23:58:19.478Z,28.40
